Time;durP1;ratioP1;P1;durP2;ratioP2;P2;SDS_P1;SDS_P2;PMS_P1;PMS_P2;Temp;Humidity;BMP_temperature;BMP_pressure;BME280_temperature;BME280_humidity;BME280_pressure;Samples;Min_cycle;Max_cycle;Signal;HPM_P1;HPM_P2
2021/12/21 00:01:55;;;;;;;4.28;0.68;;;;;;;-2.61;92.21;101221.00;5035333;28;20393;-50
2021/12/21 00:04:20;;;;;;;5.90;1.58;;;;;;;-2.55;92.54;101226.44;5035217;28;20060;-49
2021/12/21 00:06:46;;;;;;;1.92;1.10;;;;;;;-2.41;92.88;101231.31;5035408;28;20159;-47
2021/12/21 00:09:11;;;;;;;3.03;0.90;;;;;;;-2.34;91.45;101231.66;5043063;28;20089;-47
2021/12/21 00:11:37;;;;;;;2.72;0.80;;;;;;;-2.15;91.10;101237.63;5053956;28;20037;-48
2021/12/21 00:20:09;;;;;;;3.53;1.00;;;;;;;-2.03;89.41;101227.84;5045604;28;20037;-49
2021/12/21 00:22:05;;;;;;;1.48;0.73;;;;;;;-2.14;89.85;101234.22;5057498;28;20443;-47
2021/12/21 00:24:41;;;;;;;3.90;1.00;;;;;;;-2.19;89.81;101235.69;5050817;28;20037;-48
2021/12/21 00:27:08;;;;;;;1.70;0.85;;;;;;;-2.31;90.42;101236.06;5020747;28;20528;-47
2021/12/21 00:29:34;;;;;;;3.33;1.10;;;;;;;-2.30;91.57;101227.53;5033952;28;20382;-48
2021/12/21 00:31:59;;;;;;;2.33;1.10;;;;;;;-2.30;91.64;101236.13;5049193;28;20041;-48
2021/12/21 00:34:25;;;;;;;1.83;1.00;;;;;;;-2.35;91.65;101241.91;5047247;28;20432;-47
2021/12/21 00:36:52;;;;;;;1.88;0.68;;;;;;;-2.38;91.57;101232.34;5045079;28;20052;-48
2021/12/21 00:39:17;;;;;;;4.22;1.10;;;;;;;-2.45;92.58;101232.88;5041885;28;20037;-49
2021/12/21 00:41:43;;;;;;;2.45;1.00;;;;;;;-2.44;92.02;101239.78;5054511;28;20082;-48
2021/12/21 00:44:09;;;;;;;1.63;0.90;;;;;;;-2.45;91.89;101237.16;5039239;28;20033;-47
2021/12/21 00:46:34;;;;;;;2.70;0.98;;;;;;;-2.51;92.32;101237.75;5033473;28;20110;-47
2021/12/21 00:49:12;;;;;;;3.40;1.30;;;;;;;-2.44;92.28;101239.78;5035796;28;20527;-47
2021/12/21 00:51:38;;;;;;;3.33;1.33;;;;;;;-2.40;92.00;101246.81;5034457;28;20029;-47
2021/12/21 00:54:03;;;;;;;2.72;1.00;;;;;;;-2.28;91.55;101241.34;5019233;28;20537;-48
2021/12/21 00:56:29;;;;;;;3.05;1.02;;;;;;;-2.24;91.02;101248.38;5052276;28;20370;-48
2021/12/21 00:58:54;;;;;;;4.43;1.20;;;;;;;-2.20;90.72;101249.38;5054088;28;20116;-48
2021/12/21 01:01:20;;;;;;;2.67;0.82;;;;;;;-2.22;90.24;101238.16;5045116;28;20081;-47
2021/12/21 01:03:52;;;;;;;0.90;0.55;;;;;;;-2.20;90.45;101236.53;5034393;28;20037;-48
2021/12/21 01:11:42;;;;;;;2.67;0.82;;;;;;;-2.35;89.54;101255.66;5033164;28;20138;-48
2021/12/21 01:14:47;;;;;;;3.28;1.02;;;;;;;-2.38;89.38;101250.34;5049389;28;20040;-47
2021/12/21 01:17:17;;;;;;;1.60;0.90;;;;;;;-2.43;89.64;101249.28;5051494;28;20063;-48
2021/12/21 01:19:47;;;;;;;2.17;1.00;;;;;;;-2.39;89.85;101256.31;5035534;28;20091;-47
2021/12/21 01:23:09;;;;;;;2.25;0.85;;;;;;;-2.34;90.12;101265.13;5032924;28;20492;-46
2021/12/21 01:35:43;;;;;;;1.95;0.90;;;;;;;-1.86;87.64;101267.19;5051939;28;20033;-48
2021/12/21 01:38:22;;;;;;;4.22;2.03;;;;;;;-1.88;86.66;101279.13;5033825;28;20397;-50
2021/12/21 01:40:59;;;;;;;3.47;1.50;;;;;;;-1.86;86.84;101272.34;5033786;28;20400;-47
2021/12/21 01:51:20;;;;;;;4.97;1.75;;;;;;;-1.78;87.25;101282.16;5045112;28;20071;-48
2021/12/21 01:53:47;;;;;;;2.58;1.25;;;;;;;-1.66;88.46;101271.50;5031831;28;20477;-47
2021/12/21 01:56:13;;;;;;;4.70;1.40;;;;;;;-1.70;90.03;101281.59;5032209;28;20046;-46
2021/12/21 01:58:40;;;;;;;2.15;1.30;;;;;;;-1.78;93.29;101283.84;5031651;28;20049;-47
2021/12/21 02:01:08;;;;;;;2.40;1.10;;;;;;;-1.63;92.17;101283.63;5032156;28;20174;-47
2021/12/21 02:03:34;;;;;;;3.75;1.00;;;;;;;-1.52;91.23;101293.56;5033431;28;20457;-47
2021/12/21 02:06:00;;;;;;;1.90;1.02;;;;;;;-1.53;91.26;101293.50;5015781;28;20068;-48
2021/12/21 02:08:25;;;;;;;1.33;0.73;;;;;;;-1.58;92.02;101301.03;5038732;28;20124;-47
2021/12/21 02:10:51;;;;;;;2.90;1.20;;;;;;;-1.61;92.39;101300.03;5036833;28;20042;-49
2021/12/21 02:13:16;;;;;;;2.17;0.93;;;;;;;-1.64;92.78;101294.72;5033158;28;20036;-48
2021/12/21 02:15:42;;;;;;;2.85;0.73;;;;;;;-1.62;92.99;101287.97;5051004;28;20033;-48
2021/12/21 02:18:32;;;;;;;1.77;0.95;;;;;;;-1.57;93.11;101295.06;5053134;28;20033;-46
2021/12/21 02:21:04;;;;;;;1.80;0.80;;;;;;;-1.48;92.26;101304.88;5050240;28;20171;-47
2021/12/21 02:23:40;;;;;;;3.55;1.40;;;;;;;-1.47;91.43;101303.19;5033358;28;20038;-49
2021/12/21 02:26:21;;;;;;;2.95;1.30;;;;;;;-1.42;91.58;101304.25;5032072;28;20030;-48
2021/12/21 02:29:08;;;;;;;3.05;1.45;;;;;;;-1.40;91.36;101305.19;5033273;28;20147;-47
2021/12/21 02:31:32;;;;;;;3.97;1.80;;;;;;;-1.31;91.93;101301.31;5033010;28;20103;-47
2021/12/21 02:33:57;;;;;;;6.70;2.55;;;;;;;-1.21;91.90;101305.13;5032743;28;20029;-47
2021/12/21 02:36:23;;;;;;;6.18;2.70;;;;;;;-1.11;91.81;101308.97;5033062;28;20484;-47
2021/12/21 02:38:48;;;;;;;8.68;3.10;;;;;;;-1.05;91.09;101304.06;5032297;28;20045;-47
2021/12/21 02:41:14;;;;;;;6.57;2.88;;;;;;;-1.00;91.03;101316.34;5033065;28;20041;-48
2021/12/21 02:43:39;;;;;;;6.25;2.60;;;;;;;-0.95;90.94;101315.63;5032905;28;20495;-48
2021/12/21 02:46:05;;;;;;;3.80;1.52;;;;;;;-0.98;90.62;101313.81;5032923;28;20044;-47
2021/12/21 02:48:31;;;;;;;2.33;1.00;;;;;;;-0.98;90.43;101318.09;5029777;28;20040;-47
2021/12/21 02:50:57;;;;;;;1.90;1.10;;;;;;;-1.01;89.97;101311.09;5031932;28;20036;-48
2021/12/21 02:53:22;;;;;;;1.55;0.80;;;;;;;-0.99;90.86;101314.63;5032629;28;20030;-47
2021/12/21 02:55:48;;;;;;;2.25;0.80;;;;;;;-0.94;91.12;101315.69;5040362;28;20507;-47
2021/12/21 02:58:13;;;;;;;2.05;0.80;;;;;;;-0.89;91.27;101316.75;5056483;28;20140;-47
2021/12/21 03:00:39;;;;;;;1.30;0.70;;;;;;;-0.82;91.08;101308.41;5038512;28;20025;-47
2021/12/21 03:03:11;;;;;;;2.50;1.08;;;;;;;-0.80;90.42;101311.06;5036569;28;20493;-47
2021/12/21 03:05:38;;;;;;;2.10;1.20;;;;;;;-0.83;89.97;101306.66;5036595;28;20473;-47
2021/12/21 03:10:29;;;;;;;4.85;2.03;;;;;;;-0.81;90.84;101320.50;5036537;28;20037;-48
2021/12/21 03:15:39;;;;;;;9.95;2.95;;;;;;;-0.76;90.51;101318.09;5035958;28;20036;-47
2021/12/21 03:18:04;;;;;;;5.57;2.65;;;;;;;-0.77;89.76;101312.06;5036568;28;20037;-47
2021/12/21 03:20:29;;;;;;;4.10;2.20;;;;;;;-0.82;88.96;101308.41;5036272;28;20530;-47
2021/12/21 03:22:55;;;;;;;3.00;1.40;;;;;;;-0.77;89.97;101313.75;5036022;28;20053;-47
2021/12/21 03:25:21;;;;;;;2.22;1.38;;;;;;;-0.73;90.03;101318.22;5034966;28;20041;-47
2021/12/21 03:27:46;;;;;;;2.80;1.42;;;;;;;-0.73;89.57;101322.50;5051221;28;20112;-47
2021/12/21 03:30:14;;;;;;;1.42;1.13;;;;;;;-0.72;89.86;101332.88;5055810;28;20145;-49
2021/12/21 03:32:40;;;;;;;2.10;1.20;;;;;;;-0.73;89.71;101318.22;5054581;28;20041;-46
2021/12/21 03:35:07;;;;;;;1.50;1.02;;;;;;;-0.69;90.49;101311.47;5055977;28;20074;-50
2021/12/21 03:37:33;;;;;;;1.67;0.93;;;;;;;-0.67;89.89;101315.88;5054576;28;20439;-47
2021/12/21 03:40:01;;;;;;;2.97;1.65;;;;;;;-0.62;89.87;101326.38;5037405;28;20078;-46
2021/12/21 03:42:27;;;;;;;2.95;1.45;;;;;;;-0.61;89.78;101317.81;5054625;28;20123;-47
2021/12/21 03:44:53;;;;;;;4.20;2.17;;;;;;;-0.62;89.20;101334.13;5054374;28;20037;-47
2021/12/21 03:47:21;;;;;;;3.97;2.20;;;;;;;-0.76;88.25;101331.91;5055734;28;20136;-48
2021/12/21 03:52:18;;;;;;;5.40;2.72;;;;;;;-0.85;89.23;101344.41;5035608;28;20041;-46
2021/12/21 03:54:50;;;;;;;3.25;1.95;;;;;;;-0.83;89.86;101329.91;5045731;28;20033;-49
2021/12/21 03:57:16;;;;;;;2.30;1.77;;;;;;;-0.80;89.64;101321.38;5054113;28;20033;-48
2021/12/21 03:59:43;;;;;;;4.13;2.30;;;;;;;-0.80;89.76;101324.88;5053456;28;20040;-48
2021/12/21 04:02:11;;;;;;;4.47;1.60;;;;;;;-0.78;89.80;101330.94;5055450;28;20142;-47
2021/12/21 04:04:38;;;;;;;2.80;1.58;;;;;;;-0.80;88.67;101331.69;5055308;28;20090;-48
2021/12/21 04:07:04;;;;;;;2.60;1.50;;;;;;;-0.81;88.92;101335.97;5032945;28;20043;-48
2021/12/21 04:09:29;;;;;;;2.92;1.70;;;;;;;-0.89;86.89;101341.66;5035937;28;20061;-50
2021/12/21 04:11:54;;;;;;;2.33;1.52;;;;;;;-0.88;88.13;101338.25;5053954;28;20037;-49
2021/12/21 04:14:20;;;;;;;4.15;2.10;;;;;;;-0.93;87.95;101340.66;5033946;28;20033;-48
2021/12/21 04:16:46;;;;;;;4.22;2.33;;;;;;;-0.97;87.80;101349.09;5035233;28;20046;-46
2021/12/21 04:19:13;;;;;;;3.13;1.80;;;;;;;-0.96;88.43;101339.66;5045051;28;20468;-48
2021/12/21 04:21:39;;;;;;;4.47;2.20;;;;;;;-0.97;88.34;101343.06;5055064;28;20044;-47
2021/12/21 04:24:05;;;;;;;4.85;2.33;;;;;;;-0.95;88.71;101351.75;5055200;28;20033;-48
2021/12/21 04:26:30;;;;;;;4.30;2.05;;;;;;;-0.96;88.50;101344.81;5046706;28;20422;-48
2021/12/21 04:28:55;;;;;;;4.13;2.03;;;;;;;-1.00;88.34;101333.47;5034864;28;20037;-47
2021/12/21 04:31:21;;;;;;;4.13;1.92;;;;;;;-0.95;88.89;101324.25;5035137;28;20050;-47
2021/12/21 04:33:47;;;;;;;3.30;1.60;;;;;;;-0.90;89.00;101330.47;5033750;28;20432;-49
2021/12/21 04:36:14;;;;;;;2.38;1.40;;;;;;;-0.84;89.36;101324.66;5034743;28;20041;-48
2021/12/21 04:38:44;;;;;;;2.42;1.33;;;;;;;-0.82;88.34;101329.06;5033330;28;20033;-48
2021/12/21 04:41:15;;;;;;;5.65;1.65;;;;;;;-0.83;87.61;101326.44;5033403;28;20037;-48
2021/12/21 04:43:42;;;;;;;2.50;1.52;;;;;;;-0.81;87.62;101329.94;5034968;28;20069;-48
2021/12/21 04:46:07;;;;;;;1.98;1.42;;;;;;;-0.79;87.67;101330.91;5033450;28;20037;-48
2021/12/21 04:48:33;;;;;;;2.60;1.30;;;;;;;-0.77;87.48;101326.66;5034695;28;20033;-49
2021/12/21 04:50:59;;;;;;;3.00;1.30;;;;;;;-0.75;87.47;101325.91;5033599;28;20065;-48
2021/12/21 04:53:25;;;;;;;2.17;1.20;;;;;;;-0.76;86.95;101329.31;5034167;28;20477;-48
2021/12/21 04:55:51;;;;;;;2.47;1.52;;;;;;;-0.73;87.82;101328.53;5034340;28;20057;-49
2021/12/21 04:58:16;;;;;;;2.83;1.40;;;;;;;-0.72;87.22;101330.28;5035474;28;20041;-48
2021/12/21 05:00:42;;;;;;;1.98;1.20;;;;;;;-0.67;87.94;101327.91;5053748;28;20082;-50
2021/12/21 05:03:09;;;;;;;2.15;1.63;;;;;;;-0.62;87.64;101340.16;5054253;28;20475;-48
2021/12/21 05:05:34;;;;;;;3.08;2.00;;;;;;;-0.59;87.30;101342.00;5054057;28;20087;-47
2021/12/21 05:08:19;;;;;;;2.55;1.33;;;;;;;-0.67;86.13;101333.09;5053484;28;20040;-47
2021/12/21 05:10:49;;;;;;;2.72;1.50;;;;;;;-0.69;86.33;101342.44;5054394;28;20036;-51
2021/12/21 05:13:16;;;;;;;2.10;1.42;;;;;;;-0.75;86.26;101338.81;5036286;28;20120;-47
2021/12/21 05:15:42;;;;;;;2.75;1.77;;;;;;;-0.76;87.20;101349.97;5016584;28;20033;-48
2021/12/21 05:18:09;;;;;;;3.33;1.80;;;;;;;-0.79;87.54;101341.22;5032524;28;20480;-48
2021/12/21 05:20:34;;;;;;;4.85;3.38;;;;;;;-0.79;87.72;101338.63;5032836;28;20062;-48
2021/12/21 05:23:00;;;;;;;3.70;2.10;;;;;;;-0.81;87.64;101333.41;5035783;28;20037;-48
2021/12/21 05:25:25;;;;;;;3.65;2.15;;;;;;;-0.82;87.44;101333.34;5053974;28;20033;-48
2021/12/21 05:27:50;;;;;;;3.72;2.50;;;;;;;-0.84;87.74;101319.50;5053711;28;20439;-50
2021/12/21 05:30:16;;;;;;;4.30;2.65;;;;;;;-0.88;87.23;101322.78;5052252;28;20558;-50
2021/12/21 05:32:42;;;;;;;5.95;2.88;;;;;;;-0.91;87.38;101328.72;5053806;28;20033;-47
2021/12/21 05:35:09;;;;;;;6.38;3.03;;;;;;;-0.96;87.08;101335.38;5045517;28;20037;-47
2021/12/21 05:37:37;;;;;;;8.73;3.45;;;;;;;-1.00;87.49;101342.13;5015857;28;20075;-47
2021/12/21 05:40:12;;;;;;;9.20;4.15;;;;;;;-0.99;87.55;101345.59;5033728;28;20035;-49
2021/12/21 05:42:39;;;;;;;6.18;3.97;;;;;;;-1.09;87.38;101341.72;5017183;28;20063;-49
2021/12/21 05:45:06;;;;;;;9.93;5.35;;;;;;;-1.02;87.68;101337.72;5032171;28;20136;-49
2021/12/21 05:47:32;;;;;;;11.93;5.85;;;;;;;-1.04;87.25;101344.50;5045273;28;20471;-47
2021/12/21 05:49:58;;;;;;;9.43;5.75;;;;;;;-1.02;87.78;101346.34;5044535;28;20392;-49
2021/12/21 05:52:23;;;;;;;8.07;5.00;;;;;;;-0.99;87.50;101343.00;5033471;28;20036;-47
2021/12/21 05:54:49;;;;;;;8.25;4.88;;;;;;;-1.00;86.49;101349.88;5033449;28;20082;-51
2021/12/21 05:57:16;;;;;;;7.78;4.35;;;;;;;-1.01;86.68;101348.09;5033427;28;20389;-48
2021/12/21 05:59:42;;;;;;;9.00;4.60;;;;;;;-1.01;86.75;101342.94;5033327;28;20029;-47
2021/12/21 06:02:07;;;;;;;7.25;4.78;;;;;;;-0.95;86.71;101344.88;5033454;28;20074;-49
2021/12/21 06:04:33;;;;;;;9.90;4.38;;;;;;;-1.01;85.71;101335.19;5032188;28;20033;-49
2021/12/21 06:06:58;;;;;;;9.35;4.07;;;;;;;-1.02;85.65;101336.00;5033275;28;20369;-48
2021/12/21 06:09:25;;;;;;;7.93;4.70;;;;;;;-1.01;85.93;101336.88;5033505;28;20082;-49
2021/12/21 06:12:07;;;;;;;8.27;3.75;;;;;;;-1.02;86.26;101340.28;5038038;28;20045;-47
2021/12/21 06:27:28;;;;;;;3.78;2.42;;;;;;;-1.15;87.78;101338.03;5041746;28;20091;-50
2021/12/21 06:29:53;;;;;;;5.88;2.67;;;;;;;-1.22;87.24;101336.91;5053089;28;20053;-49
2021/12/21 06:32:19;;;;;;;4.47;3.08;;;;;;;-1.33;86.74;101330.41;5057051;28;20036;-50
2021/12/21 06:34:45;;;;;;;4.75;3.30;;;;;;;-1.44;87.59;101347.13;5055581;28;20060;-51
2021/12/21 06:37:11;;;;;;;7.43;3.45;;;;;;;-1.56;87.98;101340.63;5045452;28;20042;-47
2021/12/21 06:39:36;;;;;;;10.00;4.05;;;;;;;-1.66;88.43;101343.66;5019092;28;20124;-48
2021/12/21 06:42:02;;;;;;;10.13;4.10;;;;;;;-1.74;88.74;101343.31;5037143;28;20498;-51
2021/12/21 06:44:28;;;;;;;8.25;3.60;;;;;;;-1.79;88.68;101344.81;5042478;28;20456;-49
2021/12/21 06:52:23;;;;;;;7.80;3.10;;;;;;;-1.86;89.24;101340.22;5043561;28;20043;-46
2021/12/21 06:54:48;;;;;;;13.07;5.57;;;;;;;-1.89;89.50;101339.19;5050903;28;20033;-47
2021/12/21 06:57:14;;;;;;;15.20;5.38;;;;;;;-1.95;89.07;101338.94;5033880;28;20412;-47
2021/12/21 06:59:39;;;;;;;13.55;5.32;;;;;;;-2.03;89.48;101336.91;5038488;28;20473;-48
2021/12/21 07:02:05;;;;;;;9.07;4.80;;;;;;;-2.14;89.23;101334.66;5037508;28;20036;-48
2021/12/21 07:04:31;;;;;;;9.25;4.40;;;;;;;-2.30;89.90;101341.69;5021999;28;20477;-47
2021/12/21 07:06:58;;;;;;;9.85;4.53;;;;;;;-2.47;90.42;101342.63;5036646;28;20041;-50
2021/12/21 07:09:36;;;;;;;9.50;4.40;;;;;;;-2.60;91.05;101345.41;5031318;28;20041;-49
2021/12/21 07:17:47;;;;;;;6.93;3.75;;;;;;;-2.66;92.11;101335.72;5051341;28;20033;-48
2021/12/21 07:20:14;;;;;;;7.60;4.90;;;;;;;-2.83;92.87;101342.66;5053486;28;20439;-48
2021/12/21 07:22:40;;;;;;;10.65;6.40;;;;;;;-2.90;93.62;101340.59;5056193;28;20465;-48
2021/12/21 07:25:06;;;;;;;11.02;5.65;;;;;;;-2.93;93.25;101340.44;5055193;28;20116;-51
2021/12/21 07:27:31;;;;;;;172.68;77.18;;;;;;;-2.97;93.63;101343.66;5056247;28;20362;-48
2021/12/21 07:29:56;;;;;;;41.58;20.77;;;;;;;-2.99;94.02;101342.72;5053951;28;20156;-48
2021/12/21 07:32:22;;;;;;;20.42;11.02;;;;;;;-3.03;94.54;101343.38;5040822;28;20469;-47
2021/12/21 07:34:47;;;;;;;13.63;8.48;;;;;;;-2.99;94.80;101350.44;5035980;28;20034;-47
2021/12/21 07:37:12;;;;;;;13.20;8.80;;;;;;;-2.96;94.72;101355.69;5035719;28;20457;-49
2021/12/21 07:39:39;;;;;;;19.10;13.68;;;;;;;-2.94;94.02;101341.25;5035634;28;20037;-46
2021/12/21 07:42:05;;;;;;;57.20;27.73;;;;;;;-2.90;94.36;101340.59;5034393;28;20519;-51
2021/12/21 07:44:30;;;;;;;46.13;22.02;;;;;;;-2.87;94.40;101344.97;5034386;28;20057;-49
2021/12/21 07:46:56;;;;;;;55.95;24.27;;;;;;;-2.73;94.08;101343.94;5035939;28;20068;-47
2021/12/21 07:49:21;;;;;;;20.58;11.23;;;;;;;-2.58;93.25;101336.97;5035611;28;20060;-48
2021/12/21 07:51:48;;;;;;;20.77;10.00;;;;;;;-2.41;92.45;101336.84;5035591;28;20088;-48
2021/12/21 07:54:14;;;;;;;60.20;25.42;;;;;;;-2.27;91.47;101330.66;5034261;28;20048;-50
2021/12/21 07:56:40;;;;;;;23.08;12.00;;;;;;;-2.13;90.82;101334.72;5034350;28;20469;-47
2021/12/21 07:59:06;;;;;;;12.63;6.95;;;;;;;-2.02;89.88;101337.78;5035301;28;20048;-47
2021/12/21 08:01:31;;;;;;;8.02;5.53;;;;;;;-1.98;89.09;101345.69;5035336;28;20026;-48
2021/12/21 08:03:57;;;;;;;17.48;9.88;;;;;;;-1.92;88.72;101345.06;5035931;28;20038;-47
2021/12/21 08:06:25;;;;;;;37.72;20.55;;;;;;;-1.86;88.75;101342.78;5035126;28;20037;-49
2021/12/21 08:08:52;;;;;;;27.98;16.65;;;;;;;-1.69;88.44;101343.50;5049521;28;20048;-48
2021/12/21 08:12:10;;;;;;;12.68;7.60;;;;;;;-1.59;88.54;101356.00;5053456;28;20452;-47
2021/12/21 08:14:04;;;;;;;12.52;9.48;;;;;;;-1.63;87.83;101342.91;5034181;28;20512;-50
2021/12/21 08:16:30;;;;;;;11.80;7.88;;;;;;;-1.52;87.87;101344.22;5017854;28;20034;-48
2021/12/21 08:18:55;;;;;;;6.30;4.28;;;;;;;-1.40;87.91;101352.47;5048509;28;20056;-47
2021/12/21 08:21:23;;;;;;;8.48;5.30;;;;;;;-1.29;87.22;101342.63;5055199;28;20052;-46
2021/12/21 08:23:49;;;;;;;13.48;9.63;;;;;;;-1.26;87.02;101350.50;5049020;28;20128;-49
2021/12/21 08:26:15;;;;;;;9.82;5.47;;;;;;;-1.33;87.81;101351.03;5054847;28;20037;-48
2021/12/21 08:28:40;;;;;;;8.40;4.50;;;;;;;-1.29;88.30;101347.78;5054889;28;20387;-48
2021/12/21 08:31:10;;;;;;;6.95;4.55;;;;;;;-1.29;87.71;101351.22;5054974;28;20057;-47
2021/12/21 08:33:37;;;;;;;8.48;4.53;;;;;;;-1.24;88.11;101354.00;5053982;28;20136;-47
2021/12/21 08:36:07;;;;;;;7.82;4.57;;;;;;;-1.28;87.68;101341.78;5053418;28;20119;-49
2021/12/21 08:38:33;;;;;;;16.63;9.40;;;;;;;-1.24;87.67;101356.56;5054626;28;20468;-48
2021/12/21 08:41:00;;;;;;;12.80;6.72;;;;;;;-1.27;87.26;101357.34;5054637;28;20040;-48
2021/12/21 08:43:28;;;;;;;9.55;5.80;;;;;;;-1.23;87.39;101357.47;5053433;28;20029;-49
2021/12/21 08:45:55;;;;;;;8.23;5.18;;;;;;;-1.18;87.54;101354.25;5036878;28;20037;-48
2021/12/21 08:48:21;;;;;;;7.88;4.75;;;;;;;-1.23;87.49;101360.06;5053172;28;20025;-48
2021/12/21 08:50:50;;;;;;;12.60;7.38;;;;;;;-1.18;86.80;101363.72;5054149;28;20064;-49
2021/12/21 08:53:16;;;;;;;6.60;4.63;;;;;;;-1.08;86.58;101351.25;5052545;28;20376;-48
2021/12/21 08:55:43;;;;;;;7.70;4.57;;;;;;;-1.04;86.50;101354.81;5053159;28;20090;-47
2021/12/21 08:58:10;;;;;;;8.43;6.18;;;;;;;-1.02;85.94;101350.63;5052973;28;20072;-48
2021/12/21 09:00:36;;;;;;;7.30;4.43;;;;;;;-1.11;85.37;101358.00;5053269;28;20170;-48
2021/12/21 09:03:02;;;;;;;9.20;4.88;;;;;;;-1.03;85.47;101364.34;5052998;28;20041;-48
2021/12/21 09:05:30;;;;;;;9.07;5.10;;;;;;;-0.95;85.76;101360.38;5052850;28;20545;-50
2021/12/21 09:07:57;;;;;;;10.63;5.85;;;;;;;-1.01;85.46;101362.69;5052697;28;20044;-50
2021/12/21 09:10:24;;;;;;;7.45;4.78;;;;;;;-0.82;85.06;101365.19;5053094;28;20086;-52
2021/12/21 09:12:50;;;;;;;8.05;4.60;;;;;;;-0.79;85.32;101361.88;5052733;28;20114;-50
2021/12/21 09:15:17;;;;;;;10.52;5.80;;;;;;;-0.70;84.49;101357.06;5036088;28;20035;-49
2021/12/21 09:17:45;;;;;;;9.25;5.68;;;;;;;-0.82;84.00;101357.44;5052620;28;20039;-50
2021/12/21 09:20:14;;;;;;;10.45;5.30;;;;;;;-0.93;84.30;101350.09;5052586;28;20127;-47
2021/12/21 09:22:40;;;;;;;13.02;8.27;;;;;;;-1.05;84.83;101356.50;5052735;28;20119;-50
2021/12/21 09:25:07;;;;;;;13.05;7.78;;;;;;;-1.15;84.80;101348.38;5035847;28;20041;-49
2021/12/21 09:27:32;;;;;;;7.72;4.80;;;;;;;-1.31;85.60;101352.00;5043169;28;20037;-48
2021/12/21 09:29:58;;;;;;;7.50;4.70;;;;;;;-1.28;86.13;101347.84;5033762;28;20052;-47
2021/12/21 09:32:25;;;;;;;9.32;5.13;;;;;;;-1.35;86.59;101345.84;5033580;28;20428;-48
2021/12/21 09:34:50;;;;;;;9.73;4.78;;;;;;;-1.40;86.61;101339.59;5016168;28;20037;-50
2021/12/21 09:37:20;;;;;;;8.90;4.72;;;;;;;-1.42;86.92;101351.53;5033509;28;20041;-48
2021/12/21 09:39:54;;;;;;;10.90;4.38;;;;;;;-1.43;87.05;101354.94;5032676;28;20029;-49
2021/12/21 09:42:23;;;;;;;9.38;4.80;;;;;;;-1.26;86.35;101340.16;5016234;28;20053;-48
2021/12/21 09:44:49;;;;;;;9.30;6.32;;;;;;;-1.24;85.65;101341.09;5032402;28;20473;-49
2021/12/21 09:47:16;;;;;;;9.57;5.95;;;;;;;-1.10;85.49;101349.44;5032302;28;20090;-48
2021/12/21 09:49:43;;;;;;;10.30;4.05;;;;;;;-1.11;85.41;101348.53;5032348;28;20083;-49
2021/12/21 09:52:12;;;;;;;8.32;4.45;;;;;;;-1.12;85.27;101353.63;5032466;28;20422;-47
2021/12/21 09:54:38;;;;;;;12.32;5.60;;;;;;;-0.94;84.49;101338.91;5032288;28;20029;-47
2021/12/21 09:57:05;;;;;;;12.45;5.78;;;;;;;-1.02;84.28;101337.72;5041018;28;20037;-53
2021/12/21 09:59:31;;;;;;;14.32;5.15;;;;;;;-0.84;83.93;101350.47;5033278;28;20401;-49
2021/12/21 10:01:57;;;;;;;14.07;6.57;;;;;;;-0.87;83.24;101351.25;5031985;28;20555;-46
2021/12/21 10:04:27;;;;;;;9.40;4.90;;;;;;;-0.87;82.63;101346.06;5033086;28;20044;-48
2021/12/21 10:06:54;;;;;;;11.98;5.40;;;;;;;-0.84;82.99;101356.53;5038643;28;20454;-47
2021/12/21 10:09:23;;;;;;;9.35;5.03;;;;;;;-0.76;82.54;101351.66;5047417;28;20038;-49
2021/12/21 10:11:53;;;;;;;9.77;4.47;;;;;;;-0.77;82.92;101348.19;5036971;28;20037;-47
2021/12/21 10:14:23;;;;;;;21.50;13.20;;;;;;;-0.76;82.57;101349.97;5053239;28;20028;-47
2021/12/21 10:16:58;;;;;;;8.98;5.43;;;;;;;-0.80;82.71;101353.25;5053338;28;20029;-48
2021/12/21 10:19:24;;;;;;;8.40;4.22;;;;;;;-0.81;82.59;101345.44;5051634;28;20037;-48
2021/12/21 10:21:51;;;;;;;7.43;4.55;;;;;;;-0.80;82.20;101340.34;5042281;28;20041;-53
2021/12/21 10:24:27;;;;;;;10.30;4.85;;;;;;;-0.69;82.20;101339.88;5032956;28;20041;-48
2021/12/21 10:27:04;;;;;;;11.60;5.68;;;;;;;-0.60;81.73;101345.38;5031755;28;20030;-48
2021/12/21 10:29:40;;;;;;;13.73;8.50;;;;;;;-0.73;81.44;101340.56;5033005;28;20132;-49
2021/12/21 10:32:06;;;;;;;14.25;6.28;;;;;;;-0.72;81.99;101345.78;5036751;28;20548;-47
2021/12/21 10:34:32;;;;;;;8.82;5.07;;;;;;;-0.80;82.09;101342.94;5033176;28;20033;-49
2021/12/21 10:36:57;;;;;;;7.90;5.05;;;;;;;-0.93;82.05;101353.56;5031908;28;20029;-47
2021/12/21 10:39:26;;;;;;;10.25;5.63;;;;;;;-0.86;82.19;101350.41;5044568;28;20041;-47
2021/12/21 10:41:59;;;;;;;10.82;5.05;;;;;;;-0.72;82.03;101348.38;5053181;28;20161;-48
2021/12/21 10:44:24;;;;;;;8.80;4.65;;;;;;;-0.61;80.87;101356.53;5052877;28;20083;-49
2021/12/21 10:46:53;;;;;;;7.07;4.53;;;;;;;-0.42;80.47;101346.09;5052931;28;20041;-51
2021/12/21 10:49:21;;;;;;;7.60;4.45;;;;;;;-0.30;79.26;101343.97;5036341;28;20033;-49
2021/12/21 10:52:12;;;;;;;8.65;4.53;;;;;;;-0.02;78.70;101335.56;5031618;28;20370;-47
2021/12/21 10:54:40;;;;;;;7.60;4.38;;;;;;;-0.05;78.93;101337.13;5042956;28;20481;-52
2021/12/21 10:57:31;;;;;;;7.90;4.72;;;;;;;-0.02;79.06;101337.25;5052174;28;20033;-48
2021/12/21 10:59:59;;;;;;;6.90;4.35;;;;;;;-0.29;79.17;101335.41;5061035;28;20388;-48
2021/12/21 11:02:29;;;;;;;8.93;5.20;;;;;;;-0.30;79.11;101330.19;5064515;28;20063;-48
2021/12/21 11:05:07;;;;;;;7.60;4.30;;;;;;;-0.33;78.29;101325.78;5034613;28;20473;-48
2021/12/21 11:07:43;;;;;;;7.47;3.80;;;;;;;-0.45;79.18;101333.06;5031511;28;20494;-47
2021/12/21 11:10:16;;;;;;;7.28;3.90;;;;;;;-0.42;79.37;101325.44;5033280;28;20041;-51
2021/12/21 11:12:45;;;;;;;8.75;4.07;;;;;;;-0.45;79.24;101320.16;5045983;28;20503;-48
2021/12/21 11:15:14;;;;;;;9.35;4.50;;;;;;;-0.54;79.56;101325.84;5032519;28;20033;-49
2021/12/21 11:17:40;;;;;;;10.07;4.43;;;;;;;-0.48;79.99;101307.13;5034749;28;20036;-49
2021/12/21 11:20:09;;;;;;;6.85;3.63;;;;;;;-0.47;79.16;101314.06;5018498;28;20088;-51
2021/12/21 11:22:35;;;;;;;8.35;3.92;;;;;;;-0.33;79.16;101312.88;5035271;28;20091;-48
2021/12/21 11:25:01;;;;;;;7.45;4.22;;;;;;;-0.13;78.17;101318.78;5034793;28;20038;-48
2021/12/21 11:27:29;;;;;;;9.20;5.00;;;;;;;-0.03;77.37;101320.88;5035860;28;20532;-50
2021/12/21 11:29:59;;;;;;;14.38;7.63;;;;;;;-0.04;78.06;101324.28;5051099;28;20049;-51
2021/12/21 11:32:29;;;;;;;15.13;8.02;;;;;;;-0.05;78.63;101319.06;5034669;28;20029;-49
2021/12/21 11:38:09;;;;;;;22.08;9.68;;;;;;;0.12;78.09;101330.91;5034262;28;20081;-50
2021/12/21 11:40:45;;;;;;;16.60;8.63;;;;;;;0.07;77.29;101319.50;5036293;28;20454;-47
2021/12/21 11:43:28;;;;;;;15.20;7.43;;;;;;;0.09;77.98;101325.59;5034605;28;20079;-48
2021/12/21 11:46:01;;;;;;;14.18;7.05;;;;;;;0.05;77.50;101331.50;5035905;28;20033;-47
2021/12/21 11:48:30;;;;;;;13.88;7.75;;;;;;;0.01;78.27;101321.88;5035790;28;20108;-47
2021/12/21 11:51:02;;;;;;;9.90;5.15;;;;;;;-0.20;78.26;101321.06;5050988;28;20034;-48
2021/12/21 11:53:27;;;;;;;7.65;4.68;;;;;;;-0.24;78.99;101325.25;5034518;28;20548;-48
2021/12/21 11:55:54;;;;;;;7.72;4.57;;;;;;;-0.16;78.82;101317.78;5035586;28;20112;-52
2021/12/21 11:58:20;;;;;;;8.55;4.82;;;;;;;-0.14;78.77;101317.03;5035390;28;20033;-50
2021/12/21 12:01:23;;;;;;;9.85;5.00;;;;;;;-0.02;78.66;101314.88;5035603;28;20060;-47
2021/12/21 12:04:11;;;;;;;8.15;4.30;;;;;;;0.03;78.91;101319.34;5034502;28;20036;-47
2021/12/21 12:06:44;;;;;;;10.30;5.13;;;;;;;0.10;78.25;101322.19;5035439;28;20151;-47
2021/12/21 12:09:10;;;;;;;8.80;3.97;;;;;;;0.18;78.40;101323.34;5035265;28;20033;-50
2021/12/21 12:11:39;;;;;;;8.07;4.00;;;;;;;0.16;77.52;101325.00;5035442;28;20044;-47
2021/12/21 12:14:22;;;;;;;10.80;5.35;;;;;;;0.11;76.69;101326.53;5035426;28;20026;-50
2021/12/21 12:16:57;;;;;;;8.85;4.53;;;;;;;0.26;77.13;101322.75;5034165;28;20065;-49
2021/12/21 12:19:38;;;;;;;8.63;4.03;;;;;;;0.40;77.34;101329.25;5034935;28;20033;-51
2021/12/21 12:22:06;;;;;;;11.63;4.72;;;;;;;0.61;76.48;101321.38;5034637;28;20493;-52
2021/12/21 12:24:46;;;;;;;8.75;4.70;;;;;;;0.54;75.45;101320.28;5033727;28;20038;-50
2021/12/21 12:27:20;;;;;;;10.50;5.15;;;;;;;0.59;75.83;101323.00;5033501;28;20460;-49
2021/12/21 12:29:49;;;;;;;11.02;5.47;;;;;;;0.42;75.73;101317.28;5032935;28;20048;-51
2021/12/21 12:32:16;;;;;;;10.27;5.43;;;;;;;0.36;75.93;101312.78;5035010;28;20082;-48
2021/12/21 12:34:43;;;;;;;10.82;5.47;;;;;;;0.31;76.48;101310.84;5017605;28;20500;-47